Time;durP1;ratioP1;P1;durP2;ratioP2;P2;SDS_P1;SDS_P2;PMS_P1;PMS_P2;Temp;Humidity;BMP_temperature;BMP_pressure;BME280_temperature;BME280_humidity;BME280_pressure;Samples;Min_cycle;Max_cycle;Signal;HPM_P1;HPM_P2
2022/03/18 00:01:46;;;;;;;17.23;3.30;;;;;;;2.56;88.95;103577.41;5049737;28;20060;-74
2022/03/18 00:04:13;;;;;;;18.80;3.30;;;;;;;2.47;88.98;103577.41;5038837;28;20044;-72
2022/03/18 00:06:52;;;;;;;17.70;3.35;;;;;;;2.42;88.96;103587.78;5042811;28;20238;-73
2022/03/18 00:09:18;;;;;;;21.65;3.70;;;;;;;2.38;89.25;103579.16;5050786;28;20057;-74
2022/03/18 00:12:03;;;;;;;19.40;3.80;;;;;;;2.39;89.74;103579.16;5045806;28;20048;-74
2022/03/18 00:14:39;;;;;;;22.73;3.78;;;;;;;2.41;89.95;103582.63;5047445;28;20029;-72
2022/03/18 00:17:14;;;;;;;20.95;4.03;;;;;;;2.37;89.92;103588.66;5043840;28;20045;-74
2022/03/18 00:19:49;;;;;;;10.50;3.13;;;;;;;2.30;89.87;103583.50;5057328;28;20100;-73
2022/03/18 00:22:16;;;;;;;11.30;2.80;;;;;;;2.24;89.85;103594.72;5059541;28;20097;-75
2022/03/18 00:24:43;;;;;;;21.92;4.13;;;;;;;2.26;89.91;103592.13;5047413;28;20053;-75
2022/03/18 00:27:13;;;;;;;22.80;4.07;;;;;;;2.21;90.58;103588.69;5049631;28;20459;-74
2022/03/18 00:29:43;;;;;;;14.40;3.35;;;;;;;2.13;90.53;103596.44;5042248;28;20056;-75
2022/03/18 00:32:09;;;;;;;20.33;3.42;;;;;;;2.10;90.50;103600.75;5048039;28;20045;-74
2022/03/18 00:34:56;;;;;;;7.25;2.53;;;;;;;2.11;90.30;103602.50;5051778;28;20055;-74
2022/03/18 00:37:23;;;;;;;6.85;2.40;;;;;;;2.11;90.78;103603.34;5044622;28;20415;-73
2022/03/18 00:39:50;;;;;;;13.88;3.65;;;;;;;2.13;91.70;103601.63;5040522;28;20072;-72
2022/03/18 00:42:17;;;;;;;8.95;2.33;;;;;;;2.11;91.21;103605.94;5050354;28;20045;-73
2022/03/18 00:44:51;;;;;;;11.02;2.95;;;;;;;2.07;90.95;103601.63;5041958;28;20175;-74
2022/03/18 00:55:05;;;;;;;5.95;2.85;;;;;;;1.83;91.95;103595.53;5065961;28;20407;-74
2022/03/18 00:57:34;;;;;;;4.07;1.90;;;;;;;1.85;92.68;103599.84;5059219;28;20323;-74
2022/03/18 01:00:13;;;;;;;4.68;2.45;;;;;;;1.86;92.93;103600.72;5060826;28;20341;-74
2022/03/18 01:02:40;;;;;;;8.05;2.55;;;;;;;1.80;92.56;103606.75;5065980;28;20127;-75
2022/03/18 01:05:07;;;;;;;16.02;3.65;;;;;;;1.80;92.26;103604.16;5067332;28;20492;-72
2022/03/18 01:07:45;;;;;;;10.65;2.58;;;;;;;1.80;92.34;103611.94;5065851;28;20040;-74
2022/03/18 01:14:10;;;;;;;4.25;2.75;;;;;;;1.64;92.38;103619.69;5091936;27;20401;-73
2022/03/18 01:16:38;;;;;;;7.38;3.25;;;;;;;1.57;92.16;103614.47;5077203;27;20136;-74
2022/03/18 01:19:04;;;;;;;4.93;2.20;;;;;;;1.60;92.32;103618.78;5066292;28;20044;-73
2022/03/18 01:21:49;;;;;;;6.65;3.20;;;;;;;1.56;92.46;103630.88;5077279;28;20533;-74
2022/03/18 01:24:16;;;;;;;5.18;2.22;;;;;;;1.48;92.61;103627.41;5072471;28;20098;-73
2022/03/18 01:26:52;;;;;;;10.27;3.00;;;;;;;1.44;93.06;103628.25;5071157;28;20060;-76
2022/03/18 01:29:27;;;;;;;9.00;3.05;;;;;;;1.39;93.34;103630.81;5074231;28;20045;-73
2022/03/18 01:35:19;;;;;;;9.30;3.00;;;;;;;1.45;93.64;103627.38;5036505;27;20419;-73
2022/03/18 01:37:46;;;;;;;6.57;2.17;;;;;;;1.47;93.46;103636.03;5032350;27;20047;-75
2022/03/18 01:40:15;;;;;;;8.88;2.08;;;;;;;1.45;92.88;103637.72;5030291;27;20089;-73
2022/03/18 01:42:42;;;;;;;3.85;1.92;;;;;;;1.34;92.85;103639.44;5037805;27;20552;-73
2022/03/18 01:45:12;;;;;;;13.93;3.63;;;;;;;1.24;93.03;103640.25;5032292;27;20073;-73
2022/03/18 01:47:43;;;;;;;4.70;1.95;;;;;;;1.18;93.03;103643.66;5028212;27;20042;-74
2022/03/18 01:50:13;;;;;;;6.07;1.98;;;;;;;1.09;92.72;103647.94;5030384;27;20145;-72
2022/03/18 01:52:48;;;;;;;8.85;3.33;;;;;;;1.07;93.12;103652.22;5049811;27;20105;-73
2022/03/18 01:55:34;;;;;;;7.72;2.15;;;;;;;1.02;92.74;103647.03;5054675;27;20116;-74
